createdAt,value
2018-11-26T00:01:59.583Z,-8.80
2018-11-26T00:04:27.181Z,-8.84
2018-11-26T00:06:54.799Z,-8.86
2018-11-26T00:09:22.401Z,-8.87
2018-11-26T00:11:50.027Z,-8.90
2018-11-26T00:14:17.685Z,-8.93
2018-11-26T00:16:45.368Z,-8.96
2018-11-26T00:19:12.982Z,-8.98
2018-11-26T00:21:40.597Z,-9.03
2018-11-26T00:24:08.806Z,-9.06
2018-11-26T00:26:36.417Z,-9.10
2018-11-26T00:29:04.057Z,-9.13
2018-11-26T00:31:31.650Z,-9.19
2018-11-26T00:33:59.253Z,-9.25
2018-11-26T00:36:26.853Z,-9.28
2018-11-26T00:38:54.455Z,-9.34
2018-11-26T00:41:22.089Z,-9.37
2018-11-26T00:43:49.691Z,-9.41
2018-11-26T00:46:17.309Z,-9.48
2018-11-26T00:48:44.895Z,-9.53
2018-11-26T00:51:12.521Z,-9.53
2018-11-26T00:53:40.133Z,-9.60
2018-11-26T00:56:07.781Z,-9.62
2018-11-26T00:58:35.403Z,-9.65
2018-11-26T01:01:03.076Z,-9.66
2018-11-26T01:03:30.692Z,-9.72
2018-11-26T01:05:58.323Z,-9.70
2018-11-26T01:08:25.943Z,-9.71
2018-11-26T01:10:53.896Z,-9.66
2018-11-26T01:13:21.510Z,-9.64
2018-11-26T01:15:49.146Z,-9.59
2018-11-26T01:18:16.782Z,-9.54
2018-11-26T01:20:44.459Z,-9.44
2018-11-26T01:23:12.079Z,-9.42
2018-11-26T01:25:39.733Z,-9.40
2018-11-26T01:28:07.397Z,-9.38
2018-11-26T01:30:35.702Z,-9.40
2018-11-26T01:33:03.368Z,-9.43
2018-11-26T01:35:30.985Z,-9.40
2018-11-26T01:37:58.641Z,-9.44
2018-11-26T01:40:32.074Z,-9.47
2018-11-26T01:42:59.701Z,-9.50
2018-11-26T01:45:27.349Z,-9.52
2018-11-26T01:47:54.960Z,-9.54
2018-11-26T01:50:22.574Z,-9.54
2018-11-26T01:52:50.229Z,-9.60
2018-11-26T01:55:17.848Z,-9.69
2018-11-26T01:57:45.522Z,-9.69
2018-11-26T02:00:17.474Z,-9.67
2018-11-26T02:02:45.149Z,-9.68
2018-11-26T02:05:12.818Z,-9.66
2018-11-26T02:07:40.417Z,-9.68
2018-11-26T02:10:09.694Z,-9.70
2018-11-26T02:12:37.353Z,-9.75
2018-11-26T02:15:06.584Z,-9.77
2018-11-26T02:17:34.190Z,-9.79
2018-11-26T02:20:01.809Z,-9.78
2018-11-26T02:22:29.426Z,-9.81
2018-11-26T02:24:57.092Z,-9.82
2018-11-26T02:27:24.730Z,-9.81
2018-11-26T02:29:52.352Z,-9.84
2018-11-26T02:32:19.961Z,-9.83
2018-11-26T02:34:47.732Z,-9.81
2018-11-26T02:37:15.313Z,-9.81
2018-11-26T02:39:42.903Z,-9.82
2018-11-26T02:42:10.537Z,-9.83
2018-11-26T02:44:38.129Z,-9.79
2018-11-26T02:47:06.116Z,-9.77
2018-11-26T02:49:33.797Z,-9.77
2018-11-26T02:52:01.426Z,-9.76
2018-11-26T02:54:29.042Z,-9.74
2018-11-26T02:56:56.680Z,-9.72
2018-11-26T02:59:24.291Z,-9.69
2018-11-26T03:01:51.917Z,-9.68
2018-11-26T03:04:19.519Z,-9.66
2018-11-26T03:06:47.152Z,-9.63
2018-11-26T03:09:14.801Z,-9.52
2018-11-26T03:11:42.439Z,-9.39
2018-11-26T03:14:10.067Z,-9.32
2018-11-26T03:16:37.712Z,-9.26
2018-11-26T03:19:05.426Z,-9.12
2018-11-26T03:21:33.038Z,-9.04
2018-11-26T03:24:00.677Z,-8.92
2018-11-26T03:26:28.301Z,-8.82
2018-11-26T03:28:55.916Z,-8.74
2018-11-26T03:31:23.544Z,-8.66
2018-11-26T03:33:51.469Z,-8.58
2018-11-26T03:36:19.091Z,-8.51
2018-11-26T03:38:51.804Z,-8.47
2018-11-26T03:41:19.762Z,-8.38
2018-11-26T03:43:47.460Z,-8.28
2018-11-26T03:46:15.117Z,-8.10
2018-11-26T03:48:42.810Z,-7.99
2018-11-26T03:51:10.462Z,-7.93
2018-11-26T03:53:38.136Z,-7.76
2018-11-26T03:56:06.381Z,-7.54
2018-11-26T03:58:34.013Z,-7.57
2018-11-26T04:01:01.862Z,-7.57
2018-11-26T04:03:29.498Z,-7.59
2018-11-26T04:05:57.216Z,-7.58
2018-11-26T04:08:24.840Z,-7.51
2018-11-26T04:10:52.741Z,-7.40
2018-11-26T04:13:20.406Z,-7.34
2018-11-26T04:15:48.040Z,-7.33
2018-11-26T04:18:15.684Z,-7.34
2018-11-26T04:20:43.353Z,-7.37
2018-11-26T04:23:10.971Z,-7.36
2018-11-26T04:25:38.678Z,-7.36
2018-11-26T04:28:06.816Z,-7.37
2018-11-26T04:30:34.474Z,-7.41
2018-11-26T04:33:02.154Z,-7.38
2018-11-26T04:35:29.801Z,-7.36
2018-11-26T04:37:57.414Z,-7.35
2018-11-26T04:40:25.054Z,-7.36
2018-11-26T04:42:52.728Z,-7.31
2018-11-26T04:45:20.395Z,-7.28
2018-11-26T04:47:48.007Z,-7.30
2018-11-26T04:50:15.628Z,-7.30
2018-11-26T04:52:43.246Z,-7.29
2018-11-26T04:55:11.971Z,-7.22
2018-11-26T04:57:42.588Z,-7.17
2018-11-26T05:00:10.253Z,-7.17
2018-11-26T05:02:37.929Z,-7.12
2018-11-26T05:05:06.656Z,-7.08
2018-11-26T05:07:34.285Z,-7.03
2018-11-26T05:10:02.154Z,-6.93
2018-11-26T05:12:29.771Z,-6.89
2018-11-26T05:14:57.960Z,-6.90
2018-11-26T05:17:25.577Z,-6.84
2018-11-26T05:19:53.215Z,-6.86
2018-11-26T05:22:20.846Z,-6.90
2018-11-26T05:24:48.477Z,-6.88
2018-11-26T05:27:16.129Z,-6.88
2018-11-26T05:29:43.765Z,-6.81
2018-11-26T05:32:11.386Z,-6.78
2018-11-26T05:34:39.017Z,-6.77
2018-11-26T05:37:06.778Z,-6.71
2018-11-26T05:39:34.430Z,-6.68
2018-11-26T05:42:02.086Z,-6.71
2018-11-26T05:44:29.719Z,-6.67
2018-11-26T05:46:57.438Z,-6.63
2018-11-26T05:49:25.056Z,-6.52
2018-11-26T05:51:52.710Z,-6.48
2018-11-26T05:54:20.441Z,-6.38
2018-11-26T05:56:48.090Z,-6.25
2018-11-26T05:59:16.327Z,-6.29
2018-11-26T06:01:44.005Z,-6.32
2018-11-26T06:04:11.622Z,-6.20
2018-11-26T06:06:39.212Z,-6.17
2018-11-26T06:09:09.448Z,-6.06
2018-11-26T06:11:38.986Z,-5.88
2018-11-26T06:14:06.861Z,-5.83
2018-11-26T06:16:35.658Z,-5.85
2018-11-26T06:19:03.366Z,-5.75
2018-11-26T06:21:31.015Z,-5.70
2018-11-26T06:23:59.664Z,-5.69
2018-11-26T06:26:27.369Z,-5.68
2018-11-26T06:28:54.989Z,-5.64
2018-11-26T06:31:22.692Z,-5.64
2018-11-26T06:33:50.385Z,-5.69
2018-11-26T06:36:18.088Z,-5.69
2018-11-26T06:38:45.792Z,-5.70
2018-11-26T06:41:14.279Z,-5.68
2018-11-26T06:43:41.913Z,-5.71
2018-11-26T06:46:09.641Z,-5.70
2018-11-26T06:48:37.388Z,-5.72
2018-11-26T06:51:05.722Z,-5.76
2018-11-26T06:53:33.369Z,-5.78
2018-11-26T06:56:01.105Z,-5.86
2018-11-26T06:58:28.743Z,-5.84
2018-11-26T07:00:56.426Z,-5.83
2018-11-26T07:03:24.090Z,-5.85
2018-11-26T07:05:51.729Z,-5.84
2018-11-26T07:08:19.354Z,-5.85
2018-11-26T07:10:47.012Z,-5.89
2018-11-26T07:13:14.658Z,-5.99
2018-11-26T07:15:42.290Z,-6.08
2018-11-26T07:18:10.017Z,-6.15
2018-11-26T07:20:37.677Z,-6.21
2018-11-26T07:23:05.415Z,-6.23
2018-11-26T07:25:33.066Z,-6.24
2018-11-26T07:28:00.836Z,-6.25
2018-11-26T07:30:29.628Z,-6.26
2018-11-26T07:32:57.396Z,-6.27
2018-11-26T07:35:25.059Z,-6.27
2018-11-26T07:37:52.732Z,-6.02
2018-11-26T07:40:22.171Z,-6.07
2018-11-26T07:43:07.268Z,-6.17
2018-11-26T07:45:35.055Z,-6.23
2018-11-26T07:48:02.739Z,-6.29
2018-11-26T07:50:30.381Z,-6.34
2018-11-26T07:52:58.019Z,-6.41
2018-11-26T07:55:25.647Z,-6.44
2018-11-26T07:57:53.343Z,-6.46
2018-11-26T08:00:21.729Z,-6.52
2018-11-26T08:02:49.748Z,-6.57
2018-11-26T08:05:18.580Z,-6.56
2018-11-26T08:07:46.430Z,-6.49
2018-11-26T08:10:15.261Z,-6.39
2018-11-26T08:12:43.300Z,-6.19
2018-11-26T08:15:14.961Z,-6.16
2018-11-26T08:17:42.761Z,-6.24
2018-11-26T08:20:10.776Z,-6.30
2018-11-26T08:22:38.390Z,-6.29
2018-11-26T08:25:08.237Z,-6.24
2018-11-26T08:27:36.020Z,-6.22
2018-11-26T08:30:04.561Z,-6.17
2018-11-26T08:32:34.126Z,-6.11
2018-11-26T08:34:59.869Z,-6.07
2018-11-26T08:37:33.902Z,-5.94
2018-11-26T08:40:07.389Z,-5.80
2018-11-26T08:42:45.397Z,-5.57
2018-11-26T08:45:18.606Z,-5.46
2018-11-26T08:47:51.693Z,-5.42
2018-11-26T08:50:19.381Z,-5.34
2018-11-26T08:52:47.048Z,-5.27
2018-11-26T08:55:14.692Z,-5.13
2018-11-26T08:57:42.330Z,-5.02
2018-11-26T09:00:11.050Z,-4.92
2018-11-26T09:02:44.914Z,-4.82
2018-11-26T09:06:16.785Z,-4.67
2018-11-26T09:08:44.449Z,-4.42
2018-11-26T09:11:12.091Z,-4.30
2018-11-26T09:13:39.774Z,-4.24
2018-11-26T09:16:07.490Z,-4.17
2018-11-26T09:18:35.158Z,-4.13
2018-11-26T09:21:02.831Z,-4.08
2018-11-26T09:23:30.481Z,-4.01
2018-11-26T09:25:58.126Z,-3.99
2018-11-26T09:28:25.787Z,-3.98
2018-11-26T09:30:53.432Z,-3.95
2018-11-26T09:33:21.142Z,-3.92
2018-11-26T09:35:48.833Z,-3.88
2018-11-26T09:38:16.645Z,-3.88
2018-11-26T09:40:44.358Z,-3.82
2018-11-26T09:43:12.002Z,-3.77
2018-11-26T09:45:40.437Z,-3.77
2018-11-26T09:48:07.422Z,-3.77
2018-11-26T09:50:35.105Z,-3.93
2018-11-26T09:53:02.741Z,-3.74
2018-11-26T09:55:30.401Z,-3.76
2018-11-26T09:57:58.050Z,-3.81
2018-11-26T10:00:25.709Z,-3.89
2018-11-26T10:02:53.366Z,-3.96
2018-11-26T10:05:24.133Z,-4.02
2018-11-26T10:07:52.040Z,-4.09
2018-11-26T10:10:19.771Z,-4.13
2018-11-26T10:12:47.468Z,-4.14
2018-11-26T10:15:20.951Z,-4.25
2018-11-26T10:17:48.648Z,-4.29
2018-11-26T10:20:16.395Z,-4.31
2018-11-26T10:22:44.582Z,-4.31
2018-11-26T10:25:16.316Z,-4.35
2018-11-26T10:27:43.976Z,-4.37
2018-11-26T10:30:13.420Z,-4.34
2018-11-26T10:32:41.315Z,-4.36
2018-11-26T10:35:11.261Z,-4.38
2018-11-26T10:37:38.931Z,-4.31
2018-11-26T10:40:19.534Z,-4.34
2018-11-26T10:42:47.209Z,-4.40
2018-11-26T10:45:15.861Z,-4.49
2018-11-26T10:47:43.508Z,-4.53
2018-11-26T10:50:16.253Z,-4.57
2018-11-26T10:52:47.139Z,-4.58
2018-11-26T10:55:17.645Z,-4.56
2018-11-26T10:57:45.323Z,-4.60
2018-11-26T11:00:19.596Z,-4.61
2018-11-26T11:02:47.316Z,-4.68
2018-11-26T11:05:15.013Z,-4.73
2018-11-26T11:07:42.700Z,-4.77
2018-11-26T11:10:14.628Z,-4.81
2018-11-26T11:12:42.968Z,-4.81
2018-11-26T11:15:11.597Z,-4.85
2018-11-26T11:17:39.385Z,-4.87
2018-11-26T11:20:09.959Z,-4.94
2018-11-26T11:22:37.608Z,-4.93
2018-11-26T11:25:06.197Z,-4.92
2018-11-26T11:27:33.987Z,-4.95
2018-11-26T11:30:01.683Z,-4.92
2018-11-26T11:32:29.367Z,-4.89
2018-11-26T11:34:57.023Z,-4.88
2018-11-26T11:37:24.739Z,-4.87
2018-11-26T11:39:52.461Z,-4.91
2018-11-26T11:42:20.108Z,-4.97
2018-11-26T11:44:48.499Z,-4.95
2018-11-26T11:47:16.182Z,-4.86
2018-11-26T11:49:43.889Z,-4.92
2018-11-26T11:52:11.574Z,-4.99
2018-11-26T11:54:39.224Z,-5.03
2018-11-26T11:57:06.936Z,-5.07
2018-11-26T11:59:34.592Z,-5.13
2018-11-26T12:02:02.267Z,-5.15
2018-11-26T12:04:29.976Z,-5.16
2018-11-26T12:06:57.647Z,-5.18
2018-11-26T12:09:25.303Z,-5.23
2018-11-26T12:11:52.962Z,-5.25
2018-11-26T12:14:20.663Z,-5.22
2018-11-26T12:16:48.323Z,-5.25
2018-11-26T12:19:16.000Z,-5.29
2018-11-26T12:21:45.088Z,-5.30
2018-11-26T12:24:13.420Z,-5.34
2018-11-26T12:26:41.116Z,-5.11
2018-11-26T12:29:08.756Z,-5.14
2018-11-26T12:31:36.429Z,-5.25
2018-11-26T12:34:04.386Z,-5.36
2018-11-26T12:36:32.079Z,-5.45
2018-11-26T12:38:59.750Z,-5.55
2018-11-26T12:41:27.382Z,-5.61
2018-11-26T12:43:55.355Z,-5.63
2018-11-26T12:46:23.016Z,-5.67
2018-11-26T12:48:50.681Z,-5.78
2018-11-26T12:51:18.502Z,-5.86
2018-11-26T12:53:46.158Z,-5.85
2018-11-26T12:56:13.787Z,-5.87
2018-11-26T12:58:41.433Z,-5.92
2018-11-26T13:01:09.080Z,-6.01
2018-11-26T13:03:36.734Z,-6.07
2018-11-26T13:06:05.086Z,-6.13
2018-11-26T13:08:32.723Z,-6.19
2018-11-26T13:11:00.367Z,-6.26
2018-11-26T13:13:28.517Z,-6.31
2018-11-26T13:15:56.297Z,-6.38
2018-11-26T13:18:23.951Z,-6.46
2018-11-26T13:20:51.615Z,-6.53
2018-11-26T13:23:19.255Z,-6.59
2018-11-26T13:25:46.912Z,-6.63
2018-11-26T13:28:14.572Z,-6.73
2018-11-26T13:30:45.812Z,-6.79
2018-11-26T13:33:15.740Z,-6.84
2018-11-26T13:35:44.159Z,-6.88
2018-11-26T13:38:11.991Z,-6.95
2018-11-26T13:40:39.691Z,-7.00
2018-11-26T13:43:08.659Z,-7.03
2018-11-26T13:45:38.063Z,-7.04
2018-11-26T13:48:07.907Z,-7.07
2018-11-26T13:50:37.181Z,-7.09
2018-11-26T13:53:05.264Z,-7.12
2018-11-26T13:55:32.881Z,-7.09
2018-11-26T13:58:00.556Z,-7.08
2018-11-26T14:00:28.203Z,-7.12
2018-11-26T14:02:55.886Z,-7.19
2018-11-26T14:05:23.647Z,-7.20
2018-11-26T14:07:51.311Z,-7.19
2018-11-26T14:10:20.886Z,-7.22
2018-11-26T14:12:53.008Z,-7.26
2018-11-26T14:15:20.672Z,-7.29
2018-11-26T14:17:48.350Z,-7.32
2018-11-26T14:20:16.571Z,-7.32
2018-11-26T14:22:44.290Z,-7.32
2018-11-26T14:25:14.762Z,-7.35
2018-11-26T14:27:43.004Z,-7.35
2018-11-26T14:30:23.747Z,-7.38
2018-11-26T14:32:51.543Z,-7.38
2018-11-26T14:35:19.224Z,-7.35
2018-11-26T14:37:52.555Z,-7.34
2018-11-26T14:40:28.683Z,-7.23
2018-11-26T14:42:56.357Z,-7.08
2018-11-26T14:45:24.024Z,-6.94
2018-11-26T14:47:51.670Z,-6.94
2018-11-26T14:50:19.368Z,-6.92
2018-11-26T14:52:48.104Z,-7.01
2018-11-26T14:55:17.391Z,-7.09
2018-11-26T14:57:45.079Z,-7.02
2018-11-26T15:00:15.928Z,-7.00
2018-11-26T15:02:43.832Z,-6.96
2018-11-26T15:05:11.573Z,-7.03
2018-11-26T15:07:39.393Z,-7.09
2018-11-26T15:10:10.599Z,-7.13
2018-11-26T15:12:38.372Z,-7.15
2018-11-26T15:15:09.783Z,-7.19
2018-11-26T15:17:38.769Z,-7.23
2018-11-26T15:20:08.976Z,-7.27
2018-11-26T15:22:36.904Z,-7.36
2018-11-26T15:25:05.059Z,-7.43
2018-11-26T15:27:32.828Z,-7.49
2018-11-26T15:30:00.537Z,-7.54
2018-11-26T15:32:28.213Z,-7.57
2018-11-26T15:34:55.893Z,-7.60
2018-11-26T15:37:23.707Z,-7.61
2018-11-26T15:39:51.328Z,-7.61
2018-11-26T15:42:19.014Z,-7.60
2018-11-26T15:44:46.640Z,-7.61
2018-11-26T15:47:14.290Z,-7.63
2018-11-26T15:49:42.335Z,-7.70
2018-11-26T15:52:09.652Z,-7.74
2018-11-26T15:54:37.313Z,-7.82
2018-11-26T15:57:04.972Z,-7.87
2018-11-26T15:59:32.638Z,-7.94
2018-11-26T16:02:00.356Z,-8.00
2018-11-26T16:04:28.046Z,-8.05
2018-11-26T16:06:56.495Z,-8.09
2018-11-26T16:09:24.215Z,-8.15
2018-11-26T16:11:51.843Z,-8.18
2018-11-26T16:14:19.479Z,-8.21
2018-11-26T16:16:47.118Z,-8.26
2018-11-26T16:19:14.805Z,-8.28
2018-11-26T16:21:42.549Z,-8.34
2018-11-26T16:24:10.233Z,-8.40
2018-11-26T16:26:37.914Z,-8.48
2018-11-26T16:29:06.224Z,-8.56
2018-11-26T16:31:33.396Z,-8.62
2018-11-26T16:34:01.162Z,-8.67
2018-11-26T16:36:28.805Z,-8.71
2018-11-26T16:38:56.473Z,-8.76
2018-11-26T16:41:24.315Z,-8.78
2018-11-26T16:43:52.486Z,-8.80
2018-11-26T16:46:20.142Z,-8.82
2018-11-26T16:48:47.779Z,-8.80
2018-11-26T16:51:15.439Z,-8.80
2018-11-26T16:53:43.079Z,-8.82
2018-11-26T16:56:10.791Z,-8.74
2018-11-26T16:58:38.471Z,-8.74
2018-11-26T17:01:06.180Z,-8.76
2018-11-26T17:03:33.811Z,-8.79
2018-11-26T17:06:01.836Z,-8.85
2018-11-26T17:08:29.547Z,-8.84
2018-11-26T17:10:57.207Z,-8.74
2018-11-26T17:13:24.882Z,-8.65
2018-11-26T17:15:52.587Z,-8.59
2018-11-26T17:18:20.207Z,-8.60
2018-11-26T17:20:47.868Z,-8.58
2018-11-26T17:23:15.507Z,-8.55
2018-11-26T17:25:43.235Z,-8.48
2018-11-26T17:28:10.896Z,-8.42
2018-11-26T17:30:39.592Z,-8.34
2018-11-26T17:33:09.194Z,-8.31
2018-11-26T17:35:36.899Z,-8.30
2018-11-26T17:38:04.767Z,-8.31
2018-11-26T17:40:32.426Z,-8.34
2018-11-26T17:43:00.068Z,-8.36
2018-11-26T17:45:27.728Z,-8.38
2018-11-26T17:47:57.040Z,-8.42
2018-11-26T17:50:33.316Z,-8.51
2018-11-26T17:53:01.080Z,-8.61
2018-11-26T17:55:28.767Z,-8.65
2018-11-26T17:57:56.387Z,-8.67
2018-11-26T18:00:32.756Z,-8.73
2018-11-26T18:03:00.403Z,-8.79
2018-11-26T18:05:29.462Z,-8.83
2018-11-26T18:08:00.907Z,-8.87
2018-11-26T18:10:28.626Z,-8.88
2018-11-26T18:12:56.291Z,-8.94
2018-11-26T18:15:24.003Z,-8.96
2018-11-26T18:17:51.723Z,-9.01
2018-11-26T18:20:20.357Z,-9.04
2018-11-26T18:22:49.459Z,-8.99
2018-11-26T18:25:17.703Z,-9.04
2018-11-26T18:27:54.754Z,-9.06
2018-11-26T18:30:24.651Z,-9.10
2018-11-26T18:32:52.310Z,-9.17
2018-11-26T18:35:20.006Z,-9.21
2018-11-26T18:37:47.667Z,-9.23
2018-11-26T18:40:16.273Z,-9.27
2018-11-26T18:42:43.902Z,-9.34
2018-11-26T18:45:12.957Z,-9.35
2018-11-26T18:47:40.631Z,-9.40
2018-11-26T18:50:12.635Z,-9.36
2018-11-26T18:52:40.291Z,-9.39
2018-11-26T18:55:08.952Z,-9.41
2018-11-26T18:57:36.626Z,-9.30
2018-11-26T19:00:23.051Z,-9.33
2018-11-26T19:02:51.483Z,-9.36
2018-11-26T19:05:19.578Z,-9.43
2018-11-26T19:07:47.328Z,-9.47
2018-11-26T19:10:17.313Z,-9.52
2018-11-26T19:12:50.459Z,-9.53
2018-11-26T19:15:29.263Z,-9.53
2018-11-26T19:17:59.086Z,-9.54
2018-11-26T19:20:26.786Z,-9.53
2018-11-26T19:22:54.472Z,-9.57
2018-11-26T19:25:22.166Z,-9.58
2018-11-26T19:27:49.832Z,-9.60
2018-11-26T19:30:22.844Z,-9.66
2018-11-26T19:32:45.705Z,-9.69
2018-11-26T19:35:14.393Z,-9.71
2018-11-26T19:37:41.995Z,-9.73
2018-11-26T19:40:13.153Z,-9.74
2018-11-26T19:42:41.573Z,-9.74
2018-11-26T19:45:16.606Z,-9.75
2018-11-26T19:47:44.335Z,-9.75
2018-11-26T19:50:14.534Z,-9.75
2018-11-26T19:52:47.201Z,-9.68
2018-11-26T19:55:22.707Z,-9.64
2018-11-26T19:57:50.898Z,-9.56
2018-11-26T20:00:20.872Z,-9.45
2018-11-26T20:02:51.499Z,-9.33
2018-11-26T20:05:24.295Z,-9.19
2018-11-26T20:07:52.097Z,-9.00
2018-11-26T20:10:19.763Z,-8.85
2018-11-26T20:12:47.457Z,-8.75
2018-11-26T20:15:16.489Z,-8.67
2018-11-26T20:17:44.230Z,-8.59
2018-11-26T20:20:11.932Z,-8.53
2018-11-26T20:22:39.729Z,-8.47
2018-11-26T20:25:10.540Z,-8.43
2018-11-26T20:27:38.254Z,-8.46
2018-11-26T20:30:08.814Z,-8.47
2018-11-26T20:32:36.502Z,-8.46
2018-11-26T20:35:04.593Z,-8.47
2018-11-26T20:37:32.235Z,-8.53
2018-11-26T20:39:59.966Z,-8.47
2018-11-26T20:42:27.952Z,-8.54
2018-11-26T20:44:55.619Z,-8.64
2018-11-26T20:47:23.274Z,-8.71
2018-11-26T20:49:50.963Z,-8.75
2018-11-26T20:52:18.658Z,-8.81
2018-11-26T20:54:46.319Z,-8.89
2018-11-26T20:57:14.001Z,-8.96
2018-11-26T20:59:41.685Z,-8.99
2018-11-26T21:02:09.342Z,-9.03
2018-11-26T21:04:37.025Z,-9.04
2018-11-26T21:07:04.975Z,-9.07
2018-11-26T21:09:32.985Z,-9.09
2018-11-26T21:12:00.856Z,-9.10
2018-11-26T21:14:28.503Z,-9.10
2018-11-26T21:16:56.635Z,-9.09
2018-11-26T21:19:24.491Z,-9.03
2018-11-26T21:21:52.271Z,-9.02
2018-11-26T21:24:19.938Z,-9.08
2018-11-26T21:26:47.634Z,-9.14
2018-11-26T21:29:15.298Z,-9.19
2018-11-26T21:31:43.077Z,-9.23
2018-11-26T21:34:10.740Z,-9.26
2018-11-26T21:36:38.387Z,-9.30
2018-11-26T21:39:08.632Z,-9.32
2018-11-26T21:41:36.281Z,-9.38
2018-11-26T21:44:03.970Z,-9.41
2018-11-26T21:46:31.618Z,-9.45
2018-11-26T21:48:59.279Z,-9.37
2018-11-26T21:51:26.930Z,-9.40
2018-11-26T21:53:54.614Z,-9.44
2018-11-26T21:56:22.275Z,-9.46
2018-11-26T21:58:49.919Z,-9.48
2018-11-26T22:01:17.563Z,-9.49
2018-11-26T22:03:45.224Z,-9.44
2018-11-26T22:06:12.839Z,-9.44
2018-11-26T22:08:40.469Z,-9.36
2018-11-26T22:11:08.119Z,-9.30
2018-11-26T22:13:35.775Z,-9.24
2018-11-26T22:16:03.479Z,-9.17
2018-11-26T22:18:31.132Z,-9.14
2018-11-26T22:20:58.805Z,-9.15
2018-11-26T22:23:26.456Z,-9.18
2018-11-26T22:25:54.181Z,-9.13
2018-11-26T22:28:21.807Z,-9.09
2018-11-26T22:30:49.462Z,-9.06
2018-11-26T22:33:17.303Z,-9.04
2018-11-26T22:35:44.788Z,-9.04
2018-11-26T22:38:12.479Z,-9.05
2018-11-26T22:40:40.128Z,-9.10
2018-11-26T22:43:07.794Z,-9.17
2018-11-26T22:45:35.502Z,-9.16
2018-11-26T22:48:08.767Z,-9.16
2018-11-26T22:50:37.678Z,-9.14
2018-11-26T22:53:06.613Z,-9.10
2018-11-26T22:55:34.307Z,-9.14
2018-11-26T22:58:01.992Z,-9.16
2018-11-26T23:00:38.976Z,-9.19
2018-11-26T23:03:06.722Z,-9.16
2018-11-26T23:05:34.430Z,-9.13
2018-11-26T23:08:02.128Z,-9.10
2018-11-26T23:10:29.788Z,-9.05
2018-11-26T23:12:57.456Z,-9.02
2018-11-26T23:15:25.117Z,-9.02
2018-11-26T23:17:52.770Z,-9.06
2018-11-26T23:20:20.576Z,-9.05
2018-11-26T23:22:48.269Z,-8.97
2018-11-26T23:25:17.206Z,-8.95
2018-11-26T23:27:44.951Z,-9.00
2018-11-26T23:30:28.244Z,-9.06
2018-11-26T23:32:58.886Z,-9.14
2018-11-26T23:35:26.609Z,-9.19
2018-11-26T23:37:54.324Z,-9.22
2018-11-26T23:40:22.017Z,-9.18
2018-11-26T23:42:49.673Z,-9.11
2018-11-26T23:45:18.471Z,-9.02
2018-11-26T23:47:46.104Z,-9.02
2018-11-26T23:50:15.601Z,-8.99
2018-11-26T23:52:43.637Z,-8.99
2018-11-26T23:55:12.500Z,-9.04
2018-11-26T23:57:40.179Z,-9.03
